createdAt,value
2018-12-09T00:01:34.093Z,7.40
2018-12-09T00:04:02.370Z,7.30
2018-12-09T00:06:30.800Z,7.30
2018-12-09T00:08:59.201Z,7.30
2018-12-09T00:11:27.756Z,7.20
2018-12-09T00:13:56.059Z,7.20
2018-12-09T00:16:24.373Z,7.10
2018-12-09T00:18:52.663Z,7.10
2018-12-09T00:21:21.287Z,7.20
2018-12-09T00:23:49.776Z,7.20
2018-12-09T00:26:18.076Z,7.10
2018-12-09T00:28:46.469Z,7.10
2018-12-09T00:31:14.915Z,7.10
2018-12-09T00:33:43.198Z,7.00
2018-12-09T00:36:12.085Z,7.10
2018-12-09T00:38:40.404Z,7.00
2018-12-09T00:41:08.725Z,7.10
2018-12-09T00:43:37.413Z,7.00
2018-12-09T00:46:05.790Z,7.00
2018-12-09T00:48:34.663Z,7.00
2018-12-09T00:51:03.465Z,7.00
2018-12-09T00:53:33.068Z,7.00
2018-12-09T00:56:01.389Z,7.00
2018-12-09T00:58:30.873Z,6.90
2018-12-09T01:00:59.133Z,7.00
2018-12-09T01:03:27.406Z,7.00
2018-12-09T01:05:55.672Z,7.00
2018-12-09T01:08:23.946Z,7.00
2018-12-09T01:10:52.211Z,7.00
2018-12-09T01:13:20.461Z,7.00
2018-12-09T01:15:48.819Z,7.00
2018-12-09T01:18:17.174Z,7.00
2018-12-09T01:20:45.435Z,7.00
2018-12-09T01:23:13.803Z,7.00
2018-12-09T01:25:42.064Z,7.00
2018-12-09T01:28:10.341Z,7.10
2018-12-09T01:30:38.698Z,7.10
2018-12-09T01:33:07.424Z,7.10
2018-12-09T01:35:36.019Z,7.10
2018-12-09T01:38:04.404Z,7.20
2018-12-09T01:40:38.085Z,7.10
2018-12-09T01:43:06.427Z,7.20
2018-12-09T01:45:34.751Z,7.10
2018-12-09T01:48:03.014Z,7.20
2018-12-09T01:50:31.274Z,7.20
2018-12-09T01:53:09.788Z,7.20
2018-12-09T01:55:38.458Z,7.20
2018-12-09T01:58:06.800Z,7.20
2018-12-09T02:00:35.140Z,7.30
2018-12-09T02:03:03.821Z,7.30
2018-12-09T02:05:32.152Z,7.20
2018-12-09T02:08:00.609Z,7.20
2018-12-09T02:10:28.956Z,7.20
2018-12-09T02:12:57.218Z,7.30
2018-12-09T02:21:07.425Z,7.30
2018-12-09T02:23:36.089Z,7.40
2018-12-09T02:26:04.449Z,7.40
2018-12-09T02:28:32.964Z,7.40
2018-12-09T02:31:01.771Z,7.50
2018-12-09T02:33:30.560Z,7.50
2018-12-09T02:35:58.825Z,7.50
2018-12-09T02:38:27.185Z,7.50
2018-12-09T02:40:55.494Z,7.50
2018-12-09T02:43:23.754Z,7.60
2018-12-09T02:45:52.018Z,7.60
2018-12-09T02:48:20.417Z,7.60
2018-12-09T02:50:48.842Z,7.60
2018-12-09T02:53:17.621Z,7.60
2018-12-09T02:55:45.894Z,7.60
2018-12-09T02:58:14.151Z,7.60
2018-12-09T03:00:42.484Z,7.50
2018-12-09T03:03:10.845Z,7.50
2018-12-09T03:05:39.274Z,7.50
2018-12-09T03:08:07.637Z,7.50
2018-12-09T03:10:35.913Z,7.50
2018-12-09T03:13:04.384Z,7.50
2018-12-09T03:15:33.061Z,7.50
2018-12-09T03:18:01.323Z,7.50
2018-12-09T03:20:29.598Z,7.60
2018-12-09T03:22:57.879Z,7.60
2018-12-09T03:25:26.324Z,7.70
2018-12-09T03:27:54.763Z,7.70
2018-12-09T03:30:23.034Z,7.70
2018-12-09T03:32:51.298Z,7.80
2018-12-09T03:35:19.575Z,7.80
2018-12-09T03:37:47.850Z,7.90
2018-12-09T03:40:16.191Z,8.00
2018-12-09T03:42:44.571Z,8.00
2018-12-09T03:45:12.925Z,8.00
2018-12-09T03:47:41.175Z,8.10
2018-12-09T03:50:09.825Z,8.10
2018-12-09T03:52:38.206Z,8.10
2018-12-09T03:55:06.942Z,8.10
2018-12-09T03:57:35.203Z,8.10
2018-12-09T04:00:03.830Z,8.10
2018-12-09T04:02:32.362Z,8.10
2018-12-09T04:05:00.706Z,8.10
2018-12-09T04:07:29.161Z,8.10
2018-12-09T04:09:57.441Z,8.10
2018-12-09T04:12:25.734Z,8.10
2018-12-09T04:14:53.990Z,8.10
2018-12-09T04:17:22.265Z,8.10
2018-12-09T04:19:50.560Z,8.00
2018-12-09T04:22:18.915Z,8.00
2018-12-09T04:24:47.242Z,8.00
2018-12-09T04:27:15.504Z,8.00
2018-12-09T04:29:43.755Z,8.00
2018-12-09T04:32:12.016Z,8.00
2018-12-09T04:34:40.290Z,8.00
2018-12-09T04:37:09.095Z,8.10
2018-12-09T04:39:37.347Z,8.10
2018-12-09T04:42:05.704Z,8.10
2018-12-09T04:44:34.106Z,8.10
2018-12-09T04:47:02.389Z,8.10
2018-12-09T04:49:30.777Z,8.10
2018-12-09T04:51:59.406Z,8.20
2018-12-09T04:54:28.596Z,8.10
2018-12-09T04:56:56.962Z,8.20
2018-12-09T04:59:26.181Z,8.20
2018-12-09T05:01:54.742Z,8.30
2018-12-09T05:04:23.010Z,8.30
2018-12-09T05:06:51.402Z,8.30
2018-12-09T05:09:19.727Z,8.30
2018-12-09T05:11:48.520Z,8.30
2018-12-09T05:14:16.783Z,8.30
2018-12-09T05:16:45.164Z,8.40
2018-12-09T05:19:13.467Z,8.40
2018-12-09T05:21:41.819Z,8.40
2018-12-09T05:24:10.421Z,8.40
2018-12-09T05:26:39.193Z,8.40
2018-12-09T05:29:07.544Z,8.40
2018-12-09T05:31:35.850Z,8.40
2018-12-09T05:34:04.316Z,8.40
2018-12-09T05:36:32.585Z,8.40
2018-12-09T05:39:00.856Z,8.40
2018-12-09T05:41:29.117Z,8.40
2018-12-09T05:43:57.421Z,8.30
2018-12-09T05:46:25.706Z,8.30
2018-12-09T05:48:54.159Z,8.20
2018-12-09T05:51:22.427Z,8.20
2018-12-09T05:53:50.694Z,8.10
2018-12-09T05:56:19.032Z,8.10
2018-12-09T05:58:47.405Z,8.00
2018-12-09T06:01:15.695Z,8.00
2018-12-09T06:03:43.967Z,7.90
2018-12-09T06:06:12.361Z,7.90
2018-12-09T06:08:40.696Z,7.90
2018-12-09T06:11:09.054Z,7.90
2018-12-09T06:13:37.316Z,8.00
2018-12-09T06:16:05.576Z,8.00
2018-12-09T06:18:33.848Z,8.00
2018-12-09T06:21:02.217Z,8.10
2018-12-09T06:23:31.043Z,8.10
2018-12-09T06:25:59.374Z,8.00
2018-12-09T06:28:27.744Z,8.00
2018-12-09T06:30:56.030Z,8.00
2018-12-09T06:33:24.584Z,7.90
2018-12-09T06:35:53.309Z,7.80
2018-12-09T06:38:21.665Z,7.80
2018-12-09T06:40:49.964Z,7.70
2018-12-09T06:43:18.472Z,7.60
2018-12-09T06:45:46.980Z,7.60
2018-12-09T06:48:15.430Z,7.60
2018-12-09T06:50:44.012Z,7.60
2018-12-09T06:53:12.330Z,7.60
2018-12-09T06:55:40.666Z,7.60
2018-12-09T06:58:08.941Z,7.50
2018-12-09T07:00:37.461Z,7.50
2018-12-09T07:03:05.756Z,7.40
2018-12-09T07:05:34.023Z,7.40
2018-12-09T07:08:02.447Z,7.30
2018-12-09T07:10:30.925Z,7.30
2018-12-09T07:12:59.699Z,7.30
2018-12-09T07:15:28.211Z,7.30
2018-12-09T07:17:56.519Z,7.30
2018-12-09T07:20:24.952Z,7.30
2018-12-09T07:22:53.344Z,7.30
2018-12-09T07:25:21.976Z,7.30
2018-12-09T07:27:50.302Z,7.30
2018-12-09T07:30:18.716Z,7.30
2018-12-09T07:32:47.359Z,7.30
2018-12-09T07:35:15.851Z,7.30
2018-12-09T07:37:44.785Z,7.30
2018-12-09T07:40:13.057Z,7.30
2018-12-09T07:42:41.315Z,7.30
2018-12-09T07:45:09.621Z,7.30
2018-12-09T07:47:37.916Z,7.30
2018-12-09T07:50:07.081Z,7.30
2018-12-09T07:52:35.476Z,7.40
2018-12-09T07:55:03.861Z,7.50
2018-12-09T07:57:32.221Z,7.50
2018-12-09T08:00:00.645Z,7.50
2018-12-09T08:02:29.527Z,7.50
2018-12-09T08:04:58.065Z,7.50
2018-12-09T08:07:26.424Z,7.60
2018-12-09T08:09:54.723Z,7.50
2018-12-09T08:12:22.979Z,7.60
2018-12-09T08:14:51.284Z,7.60
2018-12-09T08:17:25.939Z,7.60
2018-12-09T08:19:54.303Z,7.60
2018-12-09T08:22:22.666Z,7.60
2018-12-09T08:24:50.951Z,7.60
2018-12-09T08:27:19.940Z,7.60
2018-12-09T08:29:48.321Z,7.60
2018-12-09T08:32:16.861Z,7.60
2018-12-09T08:34:45.116Z,7.50
2018-12-09T08:37:13.483Z,7.60
2018-12-09T08:39:41.805Z,7.60
2018-12-09T08:42:10.168Z,7.60
2018-12-09T08:44:38.540Z,7.70
2018-12-09T08:47:06.909Z,7.80
2018-12-09T08:49:35.163Z,7.90
2018-12-09T08:52:03.570Z,7.90
2018-12-09T08:54:32.182Z,7.90
2018-12-09T08:57:00.462Z,7.90
2018-12-09T08:59:28.729Z,7.80
2018-12-09T09:01:56.993Z,7.80
2018-12-09T09:04:25.946Z,7.80
2018-12-09T09:06:54.370Z,7.80
2018-12-09T09:09:22.628Z,7.80
2018-12-09T09:11:50.973Z,7.90
2018-12-09T09:14:19.255Z,7.90
2018-12-09T09:16:47.857Z,8.00
2018-12-09T09:19:16.103Z,8.20
2018-12-09T09:21:44.367Z,8.40
2018-12-09T09:24:12.649Z,8.50
2018-12-09T09:26:40.918Z,8.70
2018-12-09T09:29:09.208Z,8.70
2018-12-09T09:31:37.544Z,8.80
2018-12-09T09:34:05.820Z,8.80
2018-12-09T09:36:34.176Z,8.80
2018-12-09T09:39:02.865Z,8.90
2018-12-09T09:41:31.119Z,8.70
2018-12-09T09:43:59.408Z,8.60
2018-12-09T09:46:27.797Z,8.60
2018-12-09T09:48:56.288Z,8.70
2018-12-09T09:51:24.543Z,8.70
2018-12-09T09:53:52.834Z,8.70
2018-12-09T09:56:21.097Z,8.70
2018-12-09T09:58:49.659Z,8.70
2018-12-09T10:01:18.019Z,8.90
2018-12-09T10:03:46.273Z,8.90
2018-12-09T10:06:14.532Z,9.00
2018-12-09T10:08:42.808Z,9.10
2018-12-09T10:11:11.055Z,9.10
2018-12-09T10:13:39.316Z,9.00
2018-12-09T10:16:07.764Z,8.90
2018-12-09T10:18:36.029Z,8.90
2018-12-09T10:21:04.285Z,9.20
2018-12-09T10:23:33.430Z,9.30
2018-12-09T10:26:04.177Z,9.20
2018-12-09T10:28:32.489Z,9.00
2018-12-09T10:31:00.813Z,9.20
2018-12-09T10:33:29.087Z,9.30
2018-12-09T10:35:57.562Z,9.40
2018-12-09T10:38:25.856Z,9.50
2018-12-09T10:40:54.133Z,9.50
2018-12-09T10:43:22.473Z,9.70
2018-12-09T10:45:50.778Z,9.60
2018-12-09T10:48:19.073Z,9.40
2018-12-09T10:50:47.411Z,9.20
2018-12-09T10:53:15.704Z,9.20
2018-12-09T10:55:43.982Z,9.20
2018-12-09T10:58:12.272Z,9.10
2018-12-09T11:00:46.032Z,9.00
2018-12-09T11:03:14.343Z,8.80
2018-12-09T11:05:42.605Z,8.90
2018-12-09T11:08:10.856Z,8.90
2018-12-09T11:10:39.155Z,9.00
2018-12-09T11:13:07.425Z,9.10
2018-12-09T11:15:35.737Z,9.20
2018-12-09T11:18:04.145Z,9.20
2018-12-09T11:20:32.411Z,9.10
2018-12-09T11:23:00.809Z,9.00
2018-12-09T11:25:29.094Z,9.00
2018-12-09T11:27:57.505Z,9.10
2018-12-09T11:30:25.885Z,9.10
2018-12-09T11:32:54.188Z,9.10
2018-12-09T11:35:22.547Z,9.10
2018-12-09T11:37:50.804Z,9.40
2018-12-09T11:40:19.332Z,9.40
2018-12-09T11:42:47.618Z,9.60
2018-12-09T11:45:15.878Z,9.60
2018-12-09T11:47:44.292Z,9.50
2018-12-09T11:50:12.567Z,9.40
2018-12-09T11:52:40.914Z,9.50
2018-12-09T11:55:09.255Z,9.60
2018-12-09T11:57:37.609Z,9.60
2018-12-09T12:00:09.985Z,9.50
2018-12-09T12:02:38.544Z,9.30
2018-12-09T12:05:07.593Z,9.50
2018-12-09T12:07:35.843Z,9.60
2018-12-09T12:10:04.876Z,9.50
2018-12-09T12:12:33.236Z,9.50
2018-12-09T12:15:01.662Z,9.40
2018-12-09T12:17:30.132Z,9.50
2018-12-09T12:19:58.433Z,9.40
2018-12-09T12:22:26.814Z,9.30
2018-12-09T12:24:55.064Z,9.40
2018-12-09T12:27:23.360Z,9.70
2018-12-09T12:29:51.624Z,9.90
2018-12-09T12:32:19.900Z,9.70
2018-12-09T12:34:48.175Z,9.70
2018-12-09T12:37:16.552Z,9.70
2018-12-09T12:39:45.052Z,9.60
2018-12-09T12:42:13.375Z,9.70
2018-12-09T12:44:41.727Z,9.70
2018-12-09T12:47:10.073Z,9.60
2018-12-09T12:49:38.551Z,9.70
2018-12-09T12:52:06.896Z,9.70
2018-12-09T12:54:35.243Z,9.70
2018-12-09T12:57:03.721Z,9.60
2018-12-09T12:59:32.043Z,9.60
2018-12-09T13:02:00.353Z,9.50
2018-12-09T13:04:28.864Z,9.50
2018-12-09T13:06:57.760Z,9.50
2018-12-09T13:09:26.083Z,9.20
2018-12-09T13:11:54.469Z,9.20
2018-12-09T13:14:22.856Z,9.10
2018-12-09T13:16:51.133Z,9.20
2018-12-09T13:19:19.585Z,9.10
2018-12-09T13:21:47.858Z,9.20
2018-12-09T13:24:16.128Z,9.20
2018-12-09T13:26:44.628Z,9.20
2018-12-09T13:29:12.969Z,9.40
2018-12-09T13:31:41.284Z,9.50
2018-12-09T13:34:09.640Z,9.40
2018-12-09T13:36:37.931Z,9.40
2018-12-09T13:39:07.379Z,9.20
2018-12-09T13:41:35.707Z,9.10
2018-12-09T13:44:04.182Z,9.10
2018-12-09T13:46:32.546Z,9.00
2018-12-09T13:49:00.933Z,8.90
2018-12-09T13:51:29.378Z,9.00
2018-12-09T13:53:57.631Z,9.10
2018-12-09T13:56:25.935Z,9.10
2018-12-09T13:58:54.302Z,9.10
2018-12-09T14:01:22.565Z,8.90
2018-12-09T14:03:51.062Z,8.90
2018-12-09T14:06:19.446Z,8.90
2018-12-09T14:08:47.738Z,9.00
2018-12-09T14:11:16.026Z,8.90
2018-12-09T14:13:44.416Z,8.80
2018-12-09T14:16:12.899Z,8.80
2018-12-09T14:18:41.339Z,8.70
2018-12-09T14:21:09.632Z,8.90
2018-12-09T14:23:37.917Z,9.00
2018-12-09T14:26:06.203Z,8.90
2018-12-09T14:28:34.569Z,8.80
2018-12-09T14:31:02.880Z,8.80
2018-12-09T14:33:31.475Z,8.80
2018-12-09T14:35:59.975Z,8.80
2018-12-09T14:38:28.262Z,8.70
2018-12-09T14:40:56.773Z,8.70
2018-12-09T14:43:25.684Z,8.60
2018-12-09T14:45:53.967Z,8.70
2018-12-09T14:48:22.264Z,8.70
2018-12-09T14:50:50.520Z,8.70
2018-12-09T14:53:18.964Z,8.80
2018-12-09T14:55:47.233Z,8.90
2018-12-09T14:58:15.647Z,8.80
2018-12-09T15:00:44.015Z,8.80
2018-12-09T15:03:12.276Z,8.80
2018-12-09T15:05:40.575Z,8.60
2018-12-09T15:08:08.842Z,8.60
2018-12-09T15:10:37.209Z,8.60
2018-12-09T15:13:05.576Z,8.70
2018-12-09T15:15:33.933Z,8.50
2018-12-09T15:18:02.193Z,8.50
2018-12-09T15:20:30.943Z,8.30
2018-12-09T15:22:59.332Z,8.20
2018-12-09T15:25:27.602Z,8.30
2018-12-09T15:27:55.891Z,8.20
2018-12-09T15:30:24.226Z,8.10
2018-12-09T15:32:52.496Z,8.10
2018-12-09T15:35:20.769Z,8.20
2018-12-09T15:37:49.396Z,8.30
2018-12-09T15:40:17.756Z,8.40
2018-12-09T15:42:46.184Z,8.40
2018-12-09T15:45:14.535Z,8.50
2018-12-09T15:47:42.799Z,8.50
2018-12-09T15:50:11.087Z,8.40
2018-12-09T15:52:39.348Z,8.40
2018-12-09T15:55:07.796Z,8.40
2018-12-09T15:57:36.176Z,8.40
2018-12-09T16:00:05.205Z,8.60
2018-12-09T16:02:33.582Z,8.60
2018-12-09T16:05:01.925Z,8.60
2018-12-09T16:07:30.207Z,8.70
2018-12-09T16:09:58.564Z,8.60
2018-12-09T16:12:26.832Z,8.60
2018-12-09T16:14:55.101Z,8.60
2018-12-09T16:17:23.375Z,8.50
2018-12-09T16:19:51.658Z,8.60
2018-12-09T16:22:19.985Z,8.70
2018-12-09T16:24:48.237Z,8.60
2018-12-09T16:27:16.676Z,8.60
2018-12-09T16:29:44.964Z,8.70
2018-12-09T16:32:13.236Z,8.60
2018-12-09T16:34:41.672Z,8.70
2018-12-09T16:37:09.987Z,8.80
2018-12-09T16:39:38.365Z,8.60
2018-12-09T16:42:06.619Z,8.60
2018-12-09T16:44:34.881Z,8.50
2018-12-09T16:47:03.282Z,8.50
2018-12-09T16:49:31.562Z,8.40
2018-12-09T16:51:59.832Z,8.40
2018-12-09T16:54:28.088Z,8.40
2018-12-09T16:56:56.371Z,8.40
2018-12-09T16:59:24.669Z,8.40
2018-12-09T17:01:53.029Z,8.30
2018-12-09T17:04:21.508Z,8.30
2018-12-09T17:06:49.760Z,8.30
2018-12-09T17:09:18.040Z,8.20
2018-12-09T17:11:52.709Z,8.20
2018-12-09T17:14:21.895Z,8.40
2018-12-09T17:16:50.188Z,8.40
2018-12-09T17:19:18.484Z,8.40
2018-12-09T17:21:46.867Z,8.30
2018-12-09T17:24:15.136Z,8.30
2018-12-09T17:26:43.417Z,8.40
2018-12-09T17:29:11.933Z,8.40
2018-12-09T17:31:40.309Z,8.50
2018-12-09T17:34:08.576Z,8.40
2018-12-09T17:36:36.898Z,8.30
2018-12-09T17:39:07.288Z,8.40
2018-12-09T17:41:35.887Z,8.50
2018-12-09T17:44:04.379Z,8.30
2018-12-09T17:46:32.658Z,8.20
2018-12-09T17:49:01.011Z,8.10
2018-12-09T17:51:29.294Z,8.10
2018-12-09T17:53:57.568Z,8.00
2018-12-09T17:56:25.884Z,8.00
2018-12-09T17:58:54.630Z,8.00
2018-12-09T18:01:22.943Z,8.00
2018-12-09T18:03:51.379Z,8.00
2018-12-09T18:06:19.656Z,8.00
2018-12-09T18:08:47.932Z,8.00
2018-12-09T18:11:16.413Z,8.10
2018-12-09T18:13:44.697Z,8.10
2018-12-09T18:16:12.989Z,8.00
2018-12-09T18:18:41.272Z,7.80
2018-12-09T18:21:09.845Z,7.80
2018-12-09T18:23:38.475Z,8.00
2018-12-09T18:26:06.743Z,8.10
2018-12-09T18:28:34.992Z,8.20
2018-12-09T18:31:03.388Z,8.20
2018-12-09T18:33:31.700Z,8.20
2018-12-09T18:36:00.771Z,8.10
2018-12-09T18:38:29.177Z,8.00
2018-12-09T18:40:57.624Z,8.00
2018-12-09T18:43:25.883Z,8.10
2018-12-09T18:45:54.262Z,8.00
2018-12-09T18:48:22.523Z,7.90
2018-12-09T18:50:50.879Z,7.90
2018-12-09T18:53:19.302Z,7.80
2018-12-09T18:55:47.668Z,7.80
2018-12-09T18:58:15.952Z,7.80
2018-12-09T19:00:44.260Z,8.00
2018-12-09T19:03:12.619Z,8.10
2018-12-09T19:05:41.231Z,8.10
2018-12-09T19:08:09.604Z,8.00
2018-12-09T19:10:38.059Z,8.00
2018-12-09T19:13:06.411Z,7.80
2018-12-09T19:15:34.708Z,7.80
2018-12-09T19:18:03.065Z,7.80
2018-12-09T19:20:31.397Z,7.80
2018-12-09T19:22:59.740Z,7.80
2018-12-09T19:25:28.035Z,7.70
2018-12-09T19:27:56.448Z,7.80
2018-12-09T19:30:24.733Z,7.70
2018-12-09T19:32:53.033Z,7.70
2018-12-09T19:35:21.319Z,7.80
2018-12-09T19:37:49.936Z,7.80
2018-12-09T19:40:18.253Z,7.80
2018-12-09T19:42:46.563Z,7.70
2018-12-09T19:45:14.872Z,7.70
2018-12-09T19:47:43.136Z,7.70
2018-12-09T19:50:11.396Z,7.70
2018-12-09T19:52:39.676Z,7.70
2018-12-09T19:55:08.122Z,7.60
2018-12-09T19:57:36.768Z,7.70
2018-12-09T20:00:07.539Z,7.70
2018-12-09T20:02:36.113Z,7.70
2018-12-09T20:05:04.784Z,7.60
2018-12-09T20:07:33.063Z,7.60
2018-12-09T20:10:01.439Z,7.50
2018-12-09T20:12:29.852Z,7.50
2018-12-09T20:14:58.392Z,7.50
2018-12-09T20:17:26.651Z,7.50
2018-12-09T20:19:55.090Z,7.50
2018-12-09T20:22:23.529Z,7.60
2018-12-09T20:24:51.803Z,7.60
2018-12-09T20:27:20.089Z,7.60
2018-12-09T20:29:48.367Z,7.60
2018-12-09T20:32:16.759Z,7.60
2018-12-09T20:34:45.337Z,7.70
2018-12-09T20:37:13.816Z,7.70
2018-12-09T20:39:42.253Z,7.70
2018-12-09T20:42:10.645Z,7.70
2018-12-09T20:44:38.941Z,7.60
2018-12-09T20:47:07.473Z,7.50
2018-12-09T20:49:35.820Z,7.60
2018-12-09T20:52:04.279Z,7.50
2018-12-09T20:54:32.632Z,7.50
2018-12-09T20:57:01.064Z,7.50
2018-12-09T20:59:29.360Z,7.50
2018-12-09T21:01:57.678Z,7.50
2018-12-09T21:04:25.968Z,7.60
2018-12-09T21:06:54.245Z,7.50
2018-12-09T21:09:22.534Z,7.50
2018-12-09T21:11:50.812Z,7.50
2018-12-09T21:14:19.141Z,7.50
2018-12-09T21:16:47.439Z,7.50
2018-12-09T21:19:15.800Z,7.50
2018-12-09T21:21:44.132Z,7.50
2018-12-09T21:24:12.458Z,7.50
2018-12-09T21:26:40.899Z,7.50
2018-12-09T21:29:09.182Z,7.50
2018-12-09T21:31:37.500Z,7.50
2018-12-09T21:34:06.045Z,7.50
2018-12-09T21:36:34.396Z,7.40
2018-12-09T21:39:03.236Z,7.40
2018-12-09T21:41:31.519Z,7.40
2018-12-09T21:43:59.816Z,7.50
2018-12-09T21:46:28.195Z,7.40
2018-12-09T21:48:56.913Z,7.40
2018-12-09T21:51:25.216Z,7.40
2018-12-09T21:53:53.526Z,7.30
2018-12-09T21:56:21.799Z,7.30
2018-12-09T21:58:50.077Z,7.40
2018-12-09T22:01:18.420Z,7.20
2018-12-09T22:03:46.705Z,7.20
2018-12-09T22:06:15.131Z,7.20
2018-12-09T22:08:44.107Z,7.20
2018-12-09T22:11:12.467Z,7.20
2018-12-09T22:13:40.754Z,7.20
2018-12-09T22:16:09.059Z,7.20
2018-12-09T22:18:37.408Z,7.20
2018-12-09T22:21:05.773Z,7.20
2018-12-09T22:23:34.140Z,7.20
2018-12-09T22:26:02.430Z,7.20
2018-12-09T22:28:30.679Z,7.20
2018-12-09T22:30:58.967Z,7.20
2018-12-09T22:33:27.355Z,7.20
2018-12-09T22:35:55.639Z,7.20
2018-12-09T22:38:23.923Z,7.20
2018-12-09T22:40:52.199Z,7.20
2018-12-09T22:43:20.509Z,7.30
2018-12-09T22:45:48.792Z,7.30
2018-12-09T22:48:17.132Z,7.30
2018-12-09T22:50:45.428Z,7.30
2018-12-09T22:53:13.809Z,7.20
2018-12-09T22:55:43.260Z,7.20
2018-12-09T22:58:11.531Z,7.30
2018-12-09T23:00:45.312Z,7.20
2018-12-09T23:03:13.783Z,7.20
2018-12-09T23:05:42.048Z,7.20
2018-12-09T23:08:10.960Z,7.30
2018-12-09T23:10:40.384Z,7.30
2018-12-09T23:13:09.821Z,7.50
2018-12-09T23:15:39.942Z,7.40
2018-12-09T23:18:08.212Z,7.30
2018-12-09T23:20:36.655Z,7.20
2018-12-09T23:23:04.996Z,7.20
2018-12-09T23:25:33.288Z,7.10
2018-12-09T23:28:01.591Z,7.00
2018-12-09T23:30:30.066Z,7.00
2018-12-09T23:32:58.417Z,7.00
2018-12-09T23:35:27.944Z,7.00
2018-12-09T23:37:56.228Z,7.20
2018-12-09T23:40:24.731Z,7.10
2018-12-09T23:42:53.050Z,7.10
2018-12-09T23:45:21.343Z,7.10
2018-12-09T23:47:49.666Z,7.20
2018-12-09T23:50:17.960Z,7.10
2018-12-09T23:52:46.238Z,6.90
2018-12-09T23:55:14.492Z,6.90
2018-12-09T23:57:43.040Z,6.90
